Cathlamet, WA (98612)

10:20 AM PST on December 26, 2014 (GMT -0800)
KWACATHL3 | Change Station
CLOSE
Current Station
Personal Weather Station
Location: Cathlamet, Puget Island, WA
Elevation: 20 ft
Nearby Weather Stations

Elev 20 ft 46.17 °N, 123.39 °W | Updated 20 seconds ago

Overcast
Overcast
42.6 °F
Feels Like 38 °F
N
7.0
Wind Variable Wind from SE
Gusts 8.0 mph

Today
High -- | Low -- °F
--% Chance of Precip.
Yesterday
High -- | Low -- °F
Precip. -- in
7:55 AM 4:32 PM
Waxing Crescent, 28% visible
Pressure 30.41 in
Visibility 10.0 miles
Clouds Few 1800 ft
Overcast 7000 ft
Windchill 38 °F
Dew Point 42 °F
Humidity 96%
Rainfall 0.00 in
Snow Depth Not available.
UV 0 out of 12
Pollen .80 out of 12
Air Quality Not available.
Flu Activity Not available.
METAR KKLS 261815Z 16005KT 10SM FEW018 OVC070 07/04 A3041 RMK AO1

More Conditions Fewer Conditions

Pressure 30.41 in
Visibility 10.0 miles
Clouds Few 1800 ft
Overcast 7000 ft
Windchill 38 °F
Dew Point 42 °F
Humidity 96%
Rainfall 0.00 in
Snow Depth Not available.
UV 0 out of 12
Pollen .80 out of 12
Air Quality Not available.
Flu Activity Not available.
METAR KKLS 261815Z 16005KT 10SM FEW018 OVC070 07/04 A3041 RMK AO1

More Conditions Fewer Conditions

10-Day Weather Forecast

Almanac

Astronomy

Dec. 26, 2014 Rise Set
Actual Time
Civil Twilight
Nautical Twilight
Astronomical Twilight
Moon
Length of Visible Light
Length of Day
Tomorrow will be .
, % of the Moon is Illuminated

Today's Extremes

State Highs State Lows

Community

WunderPhotos

Upload Photos

1,780,661 photos uploaded!

WunderBlogs® & News

Nearby

Air Quality

  Air Quality AQ Index Pollutant
Not available.

Snow Depth

Station Depth Elevation

Earthquake Activity

City Distance Mag. Time & Date
Minimum magnitude displayed is 2.5.

Coastal Water Temperatures

Place Temperature

Nearby Weather Stations